Alamogordo White Sands Regional Airport
KALM : rendu visible

Aérodrome :











RETROUVEZ-NOUS SUR...

 
LOGIN :

S'inscrire | Disclaimer

   EN    FR    IT 

 









Légende :    VFR   VFR Marginal   IFR   IFR Intensif   IFR Très Intensif
Visi : 
Plafond : 
>= 8 km
>= 3000ft
5 à 8 km
1000 à 3000 ft
1500m à 5 km
500 à 1000 ft
800 à 1500m
200 à 500 ft
< 800m
< 200 ft
Symboles :   Orages  Brouillard  Fortes neiges  Fortes précipitations  Vent > 20 kt






- Altitude de l'aérodrome : 4200 ft
- Code IATA : ALM


KALM - Alamogordo White Sands Regional

DERNIER METAR :
  • 151615Z AUTO 16017G20KT 10SM CLR 15/02 A2987 RMK AO2

METARs EXPIRÉS :
  • 151555Z AUTO 17012G19KT 10SM CLR 15/03 A2987 RMK AO2
  • 151535Z AUTO 16012KT 10SM CLR 14/03 A2987 RMK AO2
  • 151515Z AUTO 15010KT 10SM CLR 13/02 A2986 RMK AO2
  • 151455Z AUTO 15008KT 10SM CLR 12/03 A2986 RMK AO2
  • 151435Z AUTO 15008KT 10SM CLR 11/03 A2986 RMK AO2
  • 151415Z AUTO 16011KT 10SM CLR 10/02 A2985 RMK AO2
  • 151355Z AUTO 15011KT 10SM CLR 11/02 A2984 RMK AO2
  • 151335Z AUTO 15009KT 10SM CLR 11/02 A2984 RMK AO2

TAF N/A



MET'MAP, la Météo Aéronautique d'un coup d'oeil ! - Copyright ORBIFLY Décembre 2007 - Disclaimer

ORBIFLY MET'MAP TEAM :

Programmation & Développement : Alexandra Zaïnal
Sur une idée originale de : Baudouin d'Aumeries
Assistance à la programmation : Marc-Olivier Méhu
Soutien technique & logistique : Manuel Goepfert

Contact : metmap@orbifly.com




SOURCES & CREDITS :

   NOAA       Earth
Advisory